Time;durP1;ratioP1;P1;durP2;ratioP2;P2;SDS_P1;SDS_P2;PMS_P1;PMS_P2;Temp;Humidity;BMP_temperature;BMP_pressure;BME280_temperature;BME280_humidity;BME280_pressure;Samples;Min_cycle;Max_cycle;Signal;HPM_P1;HPM_P2
2022/08/04 00:00:29;;;;;;;4.80;1.20;;;;;;;26.05;45.61;98950.66;6097541;23;20167;-89
2022/08/04 00:03:10;;;;;;;2.83;1.10;;;;;;;25.98;45.98;98947.03;6097289;23;20152;-89
2022/08/04 00:05:53;;;;;;;2.83;1.40;;;;;;;25.99;46.03;98946.03;6096931;23;20171;-90
2022/08/04 00:08:48;;;;;;;3.23;1.20;;;;;;;25.93;46.47;98951.28;6073124;23;20557;-89
2022/08/04 00:11:19;;;;;;;2.73;1.30;;;;;;;25.57;46.83;98956.47;6097013;23;20137;-89
2022/08/04 00:13:53;;;;;;;5.00;1.37;;;;;;;25.69;46.34;98963.06;6096894;23;20172;-89
2022/08/04 00:16:22;;;;;;;3.33;1.30;;;;;;;25.61;46.13;98955.94;6072549;23;20466;-89
2022/08/04 00:18:56;;;;;;;2.73;1.30;;;;;;;25.69;45.87;98959.56;6096839;23;20157;-90
2022/08/04 00:21:24;;;;;;;3.67;1.53;;;;;;;25.71;46.22;98962.91;6071828;23;20152;-90
2022/08/04 00:23:50;;;;;;;2.37;1.20;;;;;;;25.69;46.56;98960.41;6096282;23;20152;-89
2022/08/04 00:26:17;;;;;;;3.03;1.27;;;;;;;25.65;46.38;98961.78;6071590;23;20283;-89
2022/08/04 00:28:43;;;;;;;2.60;1.07;;;;;;;25.60;46.31;98953.44;6096759;23;20152;-89
2022/08/04 00:31:10;;;;;;;5.47;1.50;;;;;;;25.48;46.88;98952.19;6097169;23;20160;-89
2022/08/04 00:33:42;;;;;;;3.60;1.40;;;;;;;25.45;46.63;98963.22;6096965;23;20181;-89
2022/08/04 00:36:11;;;;;;;1.70;1.20;;;;;;;25.43;46.55;98960.75;6097319;23;20180;-89
2022/08/04 00:38:41;;;;;;;2.07;1.40;;;;;;;25.22;47.00;98965.06;6096851;23;20183;-89
2022/08/04 00:41:12;;;;;;;2.20;1.20;;;;;;;25.30;46.34;98963.19;6097359;23;20141;-89
2022/08/04 00:44:00;;;;;;;2.33;1.37;;;;;;;25.29;46.55;98963.38;6097056;23;20132;-89
2022/08/04 00:47:14;;;;;;;4.77;1.50;;;;;;;25.21;46.70;98971.47;6095585;23;20172;-89
2022/08/04 00:50:16;;;;;;;3.27;1.20;;;;;;;25.12;47.11;98968.00;6064280;23;20632;-89
2022/08/04 00:53:08;;;;;;;3.57;1.20;;;;;;;24.99;47.49;98973.09;6071774;23;20188;-89
2022/08/04 00:55:57;;;;;;;2.70;1.50;;;;;;;24.86;48.04;98971.00;6096892;23;20168;-89
2022/08/04 00:58:49;;;;;;;4.47;1.67;;;;;;;24.79;47.97;98961.13;6096820;23;20155;-89
2022/08/04 01:01:46;;;;;;;2.83;1.60;;;;;;;24.82;47.84;98960.75;6097688;23;20216;-89
2022/08/04 01:04:33;;;;;;;3.07;1.70;;;;;;;24.82;47.87;98964.28;6077270;23;20157;-89
2022/08/04 01:07:24;;;;;;;3.13;1.60;;;;;;;24.59;48.64;98960.69;6096724;23;20144;-89
2022/08/04 01:10:27;;;;;;;3.97;1.60;;;;;;;24.48;49.02;98961.03;6096664;23;20229;-88
2022/08/04 01:13:31;;;;;;;4.07;1.70;;;;;;;24.46;48.90;98957.72;6096382;23;20185;-89
2022/08/04 01:16:02;;;;;;;3.07;1.20;;;;;;;24.46;48.92;98957.72;6074507;23;20565;-89
2022/08/04 01:18:59;;;;;;;2.50;1.10;;;;;;;24.42;48.74;98970.59;6098548;23;20145;-89
2022/08/04 01:21:27;;;;;;;3.30;1.57;;;;;;;24.40;48.61;98985.19;6097441;23;20180;-89
2022/08/04 01:23:59;;;;;;;4.70;1.50;;;;;;;24.36;48.78;98983.88;6072925;23;20222;-89
2022/08/04 01:26:54;;;;;;;2.90;1.40;;;;;;;24.38;48.25;98984.53;6073159;23;20156;-89
2022/08/04 01:29:39;;;;;;;2.30;1.40;;;;;;;24.28;48.86;98974.00;6030028;23;20167;-89
2022/08/04 01:32:14;;;;;;;3.97;1.70;;;;;;;24.14;48.73;98976.53;6098783;23;20554;-89
2022/08/04 01:34:46;;;;;;;2.80;1.20;;;;;;;24.04;49.10;98975.84;6098086;23;20151;-89
2022/08/04 01:37:31;;;;;;;2.93;1.60;;;;;;;23.98;49.41;98974.69;6098801;23;20227;-89
2022/08/04 01:40:03;;;;;;;3.97;1.30;;;;;;;24.07;48.89;98975.53;6098702;23;20140;-89
2022/08/04 01:42:32;;;;;;;2.97;1.50;;;;;;;24.00;49.31;98978.06;6097905;23;20452;-89
2022/08/04 01:45:01;;;;;;;2.93;1.40;;;;;;;24.00;48.89;98978.06;6072773;23;20160;-89
2022/08/04 01:47:28;;;;;;;4.57;1.33;;;;;;;23.96;49.01;98971.34;6098185;23;20203;-89
2022/08/04 01:50:03;;;;;;;1.93;1.13;;;;;;;23.89;49.39;98974.88;6073038;23;20176;-89
2022/08/04 01:52:31;;;;;;;4.20;1.67;;;;;;;23.90;49.12;98976.56;6072770;23;20179;-89
2022/08/04 01:54:56;;;;;;;2.70;1.40;;;;;;;23.80;50.02;98974.88;6097805;23;20485;-89
2022/08/04 01:57:22;;;;;;;2.20;1.23;;;;;;;23.75;49.69;98977.22;6097899;23;20153;-89
2022/08/04 01:59:51;;;;;;;1.73;0.97;;;;;;;23.65;50.36;98976.56;6098111;23;20152;-89
2022/08/04 02:02:21;;;;;;;2.63;1.47;;;;;;;23.65;50.09;98973.03;6073309;23;20156;-90
2022/08/04 02:04:46;;;;;;;2.93;1.57;;;;;;;23.65;50.39;98973.88;6098442;23;20149;-89
2022/08/04 02:07:29;;;;;;;2.00;1.23;;;;;;;23.55;50.39;98973.22;6072755;23;20163;-89
2022/08/04 02:10:05;;;;;;;3.00;1.20;;;;;;;23.48;50.67;98979.41;6097857;23;20136;-89
2022/08/04 02:13:09;;;;;;;5.07;1.50;;;;;;;23.36;50.86;98976.16;6072635;23;20160;-89
2022/08/04 02:16:00;;;;;;;12.83;1.47;;;;;;;23.36;51.08;98980.66;6097638;23;20137;-89
2022/08/04 02:19:04;;;;;;;2.73;1.40;;;;;;;23.34;50.69;98978.19;6072936;23;20156;-89
2022/08/04 02:21:31;;;;;;;4.40;1.10;;;;;;;23.32;51.42;98971.31;6096473;23;20241;-89
2022/08/04 02:24:05;;;;;;;3.47;1.70;;;;;;;23.22;51.76;98977.63;6073043;23;20156;-89
2022/08/04 02:26:32;;;;;;;2.40;1.57;;;;;;;23.26;51.29;98970.13;6072363;23;20188;-89
2022/08/04 02:29:18;;;;;;;3.00;1.50;;;;;;;23.20;51.58;98970.78;6097897;23;20168;-89
2022/08/04 02:31:55;;;;;;;3.77;1.60;;;;;;;23.06;52.28;98971.44;6097912;23;20195;-89
2022/08/04 02:34:39;;;;;;;3.40;1.40;;;;;;;23.01;52.30;98971.06;6097548;23;20250;-89
2022/08/04 02:37:06;;;;;;;2.43;1.50;;;;;;;22.93;52.64;98968.41;6072484;23;20156;-89
2022/08/04 02:39:34;;;;;;;4.27;2.00;;;;;;;22.89;52.58;98983.06;6097764;23;20215;-89
2022/08/04 02:42:02;;;;;;;8.37;2.13;;;;;;;22.76;52.82;98990.69;6097412;23;20184;-89
2022/08/04 02:44:30;;;;;;;4.07;1.83;;;;;;;22.76;53.08;98983.53;6097256;23;20148;-89
2022/08/04 02:46:56;;;;;;;2.37;1.43;;;;;;;22.75;53.33;98986.34;6072140;23;20239;-89
2022/08/04 02:49:22;;;;;;;3.50;1.53;;;;;;;22.69;53.08;98992.34;6097810;23;20583;-89
2022/08/04 02:51:52;;;;;;;2.07;1.20;;;;;;;22.68;53.45;98991.50;6097603;23;20235;-89
2022/08/04 02:54:23;;;;;;;4.30;1.80;;;;;;;22.68;53.58;98988.00;6072194;23;20211;-89
2022/08/04 02:56:51;;;;;;;2.60;1.37;;;;;;;22.68;53.31;98988.00;6072344;23;20148;-89
2022/08/04 02:59:19;;;;;;;2.87;1.17;;;;;;;22.72;53.34;98986.69;6097626;23;20159;-89
2022/08/04 03:01:45;;;;;;;2.50;1.43;;;;;;;22.63;53.57;98992.00;6097421;23;20152;-89
2022/08/04 03:04:16;;;;;;;2.67;1.43;;;;;;;22.64;53.35;98996.31;6097411;23;20163;-89
2022/08/04 03:07:09;;;;;;;2.73;1.30;;;;;;;22.57;53.49;99000.63;6097274;23;20279;-89
2022/08/04 03:09:56;;;;;;;2.80;1.50;;;;;;;22.51;53.80;99001.25;6097695;23;20141;-89
2022/08/04 03:12:31;;;;;;;3.30;1.67;;;;;;;22.54;53.71;99000.09;6097246;23;20160;-89
2022/08/04 03:15:21;;;;;;;2.50;1.43;;;;;;;22.56;53.53;98998.91;6072256;23;20576;-89
2022/08/04 03:18:05;;;;;;;2.43;1.57;;;;;;;22.55;53.99;99001.78;6097348;23;20153;-89
2022/08/04 03:21:01;;;;;;;3.83;1.43;;;;;;;22.42;54.49;99006.72;6097185;23;20160;-89
2022/08/04 03:23:35;;;;;;;2.80;1.37;;;;;;;22.36;54.82;99002.84;6097370;23;20204;-89
2022/08/04 03:26:40;;;;;;;3.67;1.47;;;;;;;22.44;54.01;99002.88;6072549;23;20569;-89
2022/08/04 03:29:21;;;;;;;2.47;1.30;;;;;;;22.37;54.63;99009.84;6096913;23;20161;-88
2022/08/04 03:31:55;;;;;;;2.33;1.20;;;;;;;22.31;55.51;99014.97;6097124;23;20191;-89
2022/08/04 03:34:38;;;;;;;3.03;1.70;;;;;;;22.31;55.37;99012.31;6096883;23;20259;-89
2022/08/04 03:37:09;;;;;;;2.20;1.37;;;;;;;22.40;55.02;99019.38;6097012;23;20216;-89
2022/08/04 03:40:26;;;;;;;2.27;1.40;;;;;;;22.44;54.76;99021.56;6071906;23;20180;-89
2022/08/04 03:43:10;;;;;;;3.00;1.53;;;;;;;22.44;54.99;99013.56;6033632;23;20161;-89
2022/08/04 03:45:54;;;;;;;2.33;1.37;;;;;;;22.49;54.91;99011.25;6095702;23;20270;-89
2022/08/04 03:48:29;;;;;;;3.13;1.27;;;;;;;22.52;54.89;99002.94;6097114;23;20136;-89
2022/08/04 03:54:15;;;;;;;6.47;1.70;;;;;;;22.37;56.17;99009.84;6096964;23;20239;-89
2022/08/04 03:57:14;;;;;;;3.03;1.50;;;;;;;22.32;56.52;99006.81;6096933;23;20160;-89
2022/08/04 04:00:02;;;;;;;8.03;1.90;;;;;;;22.38;56.29;99011.50;6097075;23;20596;-89
2022/08/04 04:02:54;;;;;;;3.07;1.97;;;;;;;22.38;56.47;99011.50;6097526;23;20160;-89
2022/08/04 04:05:38;;;;;;;5.47;1.63;;;;;;;22.42;56.78;99009.38;6071852;23;20236;-89
2022/08/04 04:08:19;;;;;;;2.90;1.70;;;;;;;22.47;56.98;99010.59;6071563;23;20160;-89
2022/08/04 04:11:09;;;;;;;2.73;1.57;;;;;;;22.52;56.25;99005.59;6097289;23;20553;-89
2022/08/04 04:14:00;;;;;;;3.33;1.70;;;;;;;22.56;56.31;99004.28;6097285;23;20196;-89
2022/08/04 04:16:44;;;;;;;2.90;1.60;;;;;;;22.57;56.90;99005.13;6096763;23;20147;-89
2022/08/04 04:19:23;;;;;;;4.13;1.90;;;;;;;22.55;57.77;99013.31;6097173;23;20137;-89
2022/08/04 04:22:06;;;;;;;3.43;1.77;;;;;;;22.56;57.78;98998.13;6097090;23;20136;-89
2022/08/04 04:25:01;;;;;;;4.47;1.60;;;;;;;22.62;58.15;99009.00;6097032;23;20200;-90
2022/08/04 04:27:48;;;;;;;3.10;1.67;;;;;;;22.71;57.85;99017.91;6072369;23;20153;-90
2022/08/04 04:30:26;;;;;;;3.80;1.60;;;;;;;22.81;57.83;99009.75;6071705;23;20156;-90
2022/08/04 04:36:57;;;;;;;7.70;2.00;;;;;;;23.02;57.49;99024.38;6081260;23;20172;-89
2022/08/04 04:40:15;;;;;;;3.00;1.80;;;;;;;23.14;57.68;99020.41;6071788;23;20461;-89
2022/08/04 04:43:14;;;;;;;3.07;1.80;;;;;;;23.30;57.24;99014.25;5989428;23;20487;-89
2022/08/04 04:46:10;;;;;;;7.37;1.53;;;;;;;23.49;56.51;99022.03;6096333;23;20195;-90
2022/08/04 04:48:49;;;;;;;5.37;2.13;;;;;;;23.59;56.31;99028.06;6071536;23;20155;-89
2022/08/04 04:51:57;;;;;;;3.43;1.27;;;;;;;23.73;56.38;99024.75;6098191;23;20227;-89
2022/08/04 04:54:35;;;;;;;7.07;1.83;;;;;;;23.79;56.72;99021.38;6062899;23;20203;-89
2022/08/04 04:57:19;;;;;;;4.70;2.10;;;;;;;23.91;56.67;99015.69;6073465;23;20152;-89
2022/08/04 05:00:20;;;;;;;5.43;1.40;;;;;;;24.06;57.00;99022.03;6098677;23;20569;-89
2022/08/04 05:03:00;;;;;;;8.60;1.90;;;;;;;24.20;57.03;99013.38;5982846;23;20246;-89
2022/08/04 05:05:55;;;;;;;3.90;1.77;;;;;;;24.31;56.70;99024.56;6061551;23;20156;-90
2022/08/04 05:08:39;;;;;;;2.60;1.53;;;;;;;24.51;56.86;99030.38;6098734;23;20141;-89
2022/08/04 05:11:26;;;;;;;3.67;1.50;;;;;;;24.70;56.50;99027.31;6098733;23;20242;-89
2022/08/04 05:13:56;;;;;;;2.70;1.23;;;;;;;24.77;56.59;99022.94;6098275;23;20259;-89
2022/08/04 05:16:43;;;;;;;1.80;1.30;;;;;;;24.88;56.44;99017.22;6098139;23;20153;-88
2022/08/04 05:19:42;;;;;;;2.43;1.20;;;;;;;25.01;56.50;99020.19;6098709;23;20231;-88
2022/08/04 05:22:24;;;;;;;2.60;1.40;;;;;;;25.18;54.62;99020.09;6098332;23;20141;-88
2022/08/04 05:25:02;;;;;;;2.67;1.40;;;;;;;25.15;54.43;99015.94;6098367;23;20220;-88
2022/08/04 05:27:35;;;;;;;2.03;1.00;;;;;;;25.20;54.36;99013.56;6098343;23;20153;-88
2022/08/04 05:30:04;;;;;;;4.17;2.20;;;;;;;25.37;53.29;99008.91;6097940;23;20228;-88
2022/08/04 05:32:39;;;;;;;2.83;1.07;;;;;;;25.41;53.48;99012.94;6098643;23;20148;-88
2022/08/04 05:35:10;;;;;;;2.43;1.20;;;;;;;25.55;52.57;99015.69;6098034;23;20132;-88
2022/08/04 05:37:39;;;;;;;1.77;1.00;;;;;;;25.73;52.76;99015.41;6098273;23;20147;-88
2022/08/04 05:40:06;;;;;;;2.03;1.10;;;;;;;25.85;52.03;99019.34;6098185;23;20160;-88
2022/08/04 05:42:36;;;;;;;2.23;1.17;;;;;;;26.07;51.47;99015.78;6098061;23;20219;-89
2022/08/04 05:45:03;;;;;;;2.93;1.10;;;;;;;26.23;51.41;99021.03;6097963;23;20219;-89
2022/08/04 05:47:31;;;;;;;1.83;1.20;;;;;;;26.28;50.91;99022.34;6098391;23;20565;-89
2022/08/04 05:49:58;;;;;;;2.43;1.00;;;;;;;26.39;50.00;99021.91;6097688;23;20486;-89
2022/08/04 05:52:25;;;;;;;2.30;1.17;;;;;;;26.53;49.43;99019.22;6097828;23;20603;-88
2022/08/04 05:54:51;;;;;;;6.00;1.10;;;;;;;26.67;49.40;99031.00;6097854;23;20577;-89
2022/08/04 05:57:18;;;;;;;1.70;1.03;;;;;;;26.66;48.38;99032.00;6097661;23;20176;-88
2022/08/04 05:59:46;;;;;;;2.93;0.93;;;;;;;26.79;48.06;99024.16;6097775;23;20153;-89
2022/08/04 06:02:16;;;;;;;2.27;1.13;;;;;;;26.94;47.15;99027.66;6097250;23;20255;-89
2022/08/04 06:04:45;;;;;;;3.20;1.40;;;;;;;26.97;47.15;99035.38;6072686;23;20157;-88
2022/08/04 06:07:12;;;;;;;3.13;1.70;;;;;;;26.80;47.57;99025.84;6097612;23;20161;-88
2022/08/04 06:09:39;;;;;;;3.37;1.80;;;;;;;27.00;47.45;99024.25;6097455;23;20157;-89
2022/08/04 06:12:14;;;;;;;2.87;1.37;;;;;;;27.08;47.37;99028.69;6072647;23;20168;-89
2022/08/04 06:14:42;;;;;;;2.47;1.33;;;;;;;27.07;47.17;99024.34;6097314;23;20196;-88
2022/08/04 06:17:12;;;;;;;2.70;1.90;;;;;;;27.23;46.82;99021.41;6098002;23;20177;-89
2022/08/04 06:19:40;;;;;;;4.57;1.87;;;;;;;27.39;46.18;99022.06;6097679;23;20164;-88
2022/08/04 06:22:09;;;;;;;4.23;1.73;;;;;;;27.63;46.16;99025.41;6097808;23;20251;-89
2022/08/04 06:24:37;;;;;;;5.43;1.83;;;;;;;27.89;45.80;99028.34;6072247;23;20160;-89
2022/08/04 06:27:04;;;;;;;2.70;1.38;;;;;;;28.12;45.20;99015.53;6097618;23;20157;-88
2022/08/04 06:29:36;;;;;;;3.15;1.67;;;;;;;28.12;43.01;99017.41;6072509;23;20179;-89
2022/08/04 06:32:12;;;;;;;2.35;1.33;;;;;;;28.07;42.75;99017.16;6072016;23;20615;-88
2022/08/04 06:34:40;;;;;;;3.05;1.35;;;;;;;28.20;42.56;99012.69;6096841;23;20208;-89
2022/08/04 06:37:07;;;;;;;2.42;1.48;;;;;;;28.37;43.29;99016.78;6097852;23;20152;-89
2022/08/04 06:39:34;;;;;;;1.95;1.30;;;;;;;28.60;42.30;99013.81;6097473;23;20199;-88
2022/08/04 06:42:01;;;;;;;4.07;1.92;;;;;;;28.79;41.54;99012.28;6097785;23;20231;-89
2022/08/04 06:44:28;;;;;;;2.58;1.60;;;;;;;28.98;40.71;99014.25;6097237;23;20152;-88
2022/08/04 06:46:54;;;;;;;2.20;0.95;;;;;;;29.07;41.75;99007.63;6097155;23;20187;-89
2022/08/04 06:49:21;;;;;;;2.78;1.80;;;;;;;29.22;41.12;99011.03;6097104;23;20577;-88
2022/08/04 06:51:48;;;;;;;2.78;1.70;;;;;;;29.37;40.54;99006.34;6071907;23;20167;-89
2022/08/04 06:54:14;;;;;;;3.17;1.70;;;;;;;29.42;41.12;99005.72;6097469;23;20187;-88
2022/08/04 06:56:42;;;;;;;3.30;1.30;;;;;;;29.64;41.23;99009.91;6097102;23;20152;-88
2022/08/04 06:59:11;;;;;;;3.67;1.98;;;;;;;29.71;41.93;99006.19;6096056;23;20160;-88
2022/08/04 07:01:37;;;;;;;2.42;1.60;;;;;;;30.03;40.98;99003.75;6096870;23;20155;-88
2022/08/04 07:04:04;;;;;;;4.30;2.15;;;;;;;30.12;40.35;99002.50;6096910;23;20576;-88
2022/08/04 07:06:29;;;;;;;2.90;1.33;;;;;;;30.58;39.34;99003.31;6097090;23;20156;-88
2022/08/04 07:08:55;;;;;;;2.40;1.33;;;;;;;30.81;37.49;98998.25;6097014;23;20153;-89
2022/08/04 07:11:22;;;;;;;3.28;1.48;;;;;;;31.01;37.13;99003.63;6096705;23;20148;-88
2022/08/04 07:13:49;;;;;;;2.75;1.13;;;;;;;31.17;36.33;99005.00;6097052;23;20191;-88
2022/08/04 07:16:15;;;;;;;2.08;1.45;;;;;;;31.07;36.55;99002.75;6071681;23;20156;-89
2022/08/04 07:18:41;;;;;;;2.55;1.27;;;;;;;31.12;36.91;98999.41;6097195;23;20171;-90
2022/08/04 07:21:07;;;;;;;6.13;1.50;;;;;;;31.30;37.57;99007.66;6096750;23;20580;-89
2022/08/04 07:23:33;;;;;;;5.53;3.10;;;;;;;31.57;36.51;99004.63;6071933;23;20657;-88
2022/08/04 07:25:59;;;;;;;5.03;2.67;;;;;;;31.77;34.89;99007.19;6071886;23;20247;-88
2022/08/04 07:28:28;;;;;;;2.35;1.35;;;;;;;31.97;36.19;98997.00;6096889;23;20235;-88
2022/08/04 07:30:56;;;;;;;2.38;1.25;;;;;;;32.27;35.07;99005.34;6096921;23;20572;-90
2022/08/04 07:33:23;;;;;;;2.85;1.25;;;;;;;32.34;35.21;98997.16;6096981;23;20176;-89
2022/08/04 07:35:52;;;;;;;2.22;1.30;;;;;;;32.59;35.11;98997.97;6097022;23;20164;-88
2022/08/04 07:38:18;;;;;;;2.25;1.33;;;;;;;32.76;34.04;99004.44;6096922;23;20151;-89
2022/08/04 07:40:44;;;;;;;2.70;1.42;;;;;;;33.00;33.58;99000.84;6071718;23;20157;-90
2022/08/04 07:43:10;;;;;;;3.17;1.35;;;;;;;32.97;33.75;99000.47;6097258;23;20160;-90
2022/08/04 07:45:36;;;;;;;2.97;1.67;;;;;;;32.86;33.55;98993.91;6096956;23;20168;-89
2022/08/04 07:48:04;;;;;;;3.42;1.45;;;;;;;33.15;33.91;98995.06;6097285;23;20152;-88
2022/08/04 07:50:30;;;;;;;4.30;1.42;;;;;;;33.12;33.66;98990.91;6096838;23;20652;-89
2022/08/04 07:52:56;;;;;;;2.47;1.10;;;;;;;33.31;34.07;98984.34;6071695;23;20203;-90
2022/08/04 07:55:22;;;;;;;3.97;1.70;;;;;;;33.51;32.57;98985.97;6096618;23;20240;-90
2022/08/04 07:57:48;;;;;;;1.67;0.90;;;;;;;33.81;32.15;98989.50;6072273;23;20180;-90
2022/08/04 08:00:14;;;;;;;2.17;1.20;;;;;;;33.91;32.95;98987.06;6096709;23;20152;-90
2022/08/04 08:02:48;;;;;;;2.10;1.40;;;;;;;34.20;31.92;98983.44;6097020;23;20162;-90
2022/08/04 08:05:18;;;;;;;4.10;1.38;;;;;;;34.52;31.49;98981.19;6072989;23;20157;-90
2022/08/04 08:07:49;;;;;;;3.35;1.95;;;;;;;34.78;30.82;98982.59;6097378;23;20224;-91
2022/08/04 08:10:16;;;;;;;2.17;1.08;;;;;;;34.78;31.50;98983.44;6096697;23;20152;-89
2022/08/04 08:12:42;;;;;;;2.25;1.13;;;;;;;34.75;30.40;98980.38;6096621;23;20160;-89
2022/08/04 08:15:09;;;;;;;3.10;1.30;;;;;;;34.73;30.14;98977.88;6096842;23;20156;-90
2022/08/04 08:17:35;;;;;;;3.50;1.50;;;;;;;34.83;31.82;98969.13;6097225;23;20152;-90
2022/08/04 08:20:05;;;;;;;1.50;0.90;;;;;;;35.17;30.42;98976.34;6071654;23;20156;-90
2022/08/04 08:22:30;;;;;;;1.70;0.70;;;;;;;35.32;29.93;98971.22;6071459;23;20167;-90
2022/08/04 08:24:56;;;;;;;2.53;1.02;;;;;;;35.48;28.87;98977.78;6071436;23;20544;-90
2022/08/04 08:27:22;;;;;;;4.88;2.05;;;;;;;35.46;29.78;98980.75;6073227;23;20568;-89
2022/08/04 08:29:48;;;;;;;2.72;1.30;;;;;;;35.75;29.73;98974.22;6098755;23;20242;-89
2022/08/04 08:32:14;;;;;;;1.30;0.88;;;;;;;36.05;28.92;98979.41;6098783;23;20148;-89
2022/08/04 08:34:42;;;;;;;2.40;1.15;;;;;;;35.80;28.77;98969.94;6098554;23;20180;-88
2022/08/04 08:37:44;;;;;;;1.55;0.93;;;;;;;35.78;28.00;98981.91;6098720;23;20159;-89
2022/08/04 08:40:09;;;;;;;1.90;1.00;;;;;;;35.77;28.83;98965.81;6098789;23;20143;-89
2022/08/04 08:43:09;;;;;;;3.50;1.45;;;;;;;35.75;28.34;98971.50;6098718;23;20153;-89
2022/08/04 08:45:58;;;;;;;3.10;1.05;;;;;;;35.90;28.48;98975.56;6098400;23;20171;-90
2022/08/04 08:48:47;;;;;;;2.63;1.10;;;;;;;36.16;27.91;98969.47;6099138;23;20144;-89
2022/08/04 08:51:33;;;;;;;2.08;1.10;;;;;;;36.16;27.27;98959.38;6097456;23;20219;-89
2022/08/04 08:54:32;;;;;;;3.80;1.05;;;;;;;36.38;28.41;98953.94;6098292;23;20169;-89
2022/08/04 08:57:25;;;;;;;2.58;1.02;;;;;;;36.26;27.83;98948.59;6098517;23;20148;-91
2022/08/04 09:00:08;;;;;;;2.72;1.25;;;;;;;36.34;27.08;98956.38;6073254;23;20157;-90
2022/08/04 09:03:12;;;;;;;2.25;1.02;;;;;;;36.43;27.70;98947.75;6073714;23;20163;-89
2022/08/04 09:05:54;;;;;;;4.43;1.00;;;;;;;36.45;27.76;98951.06;6097884;23;20242;-89
2022/08/04 09:08:57;;;;;;;2.38;1.05;;;;;;;36.48;27.95;98945.94;6098763;23;20141;-90
2022/08/04 09:11:27;;;;;;;3.75;1.30;;;;;;;36.57;27.94;98947.16;6098582;23;20151;-89
2022/08/04 09:14:02;;;;;;;2.30;1.10;;;;;;;36.79;27.34;98942.50;6097878;23;20176;-90
2022/08/04 09:16:52;;;;;;;2.67;1.17;;;;;;;36.59;26.87;98945.00;6098315;23;20160;-90
2022/08/04 09:19:41;;;;;;;1.98;1.05;;;;;;;36.35;27.37;98943.53;6072839;23;20161;-90
2022/08/04 09:22:21;;;;;;;6.72;3.55;;;;;;;36.55;26.64;98930.22;6073463;23;20167;-89
2022/08/04 09:28:21;;;;;;;1.98;1.00;;;;;;;36.87;26.28;98936.59;6097885;23;20159;-90
2022/08/04 09:30:56;;;;;;;2.15;1.40;;;;;;;36.92;26.08;98928.47;6073140;23;20159;-90
2022/08/04 09:33:38;;;;;;;1.98;1.00;;;;;;;36.94;24.83;98914.56;6072733;23;20191;-90
2022/08/04 09:36:30;;;;;;;1.77;0.90;;;;;;;37.19;24.98;98920.31;6073286;23;20160;-92
2022/08/04 09:39:30;;;;;;;2.03;0.85;;;;;;;37.46;25.15;98912.16;6073599;23;20570;-90
2022/08/04 09:42:24;;;;;;;2.03;0.98;;;;;;;37.51;25.26;98918.50;6097173;23;20179;-92
2022/08/04 09:45:09;;;;;;;2.08;1.05;;;;;;;37.42;25.10;98920.03;6072750;23;20227;-91
2022/08/04 09:47:40;;;;;;;1.60;1.08;;;;;;;37.59;24.63;98916.38;6098050;23;20144;-89
2022/08/04 09:50:26;;;;;;;1.38;0.63;;;;;;;37.51;24.98;98917.66;6097468;23;20152;-91
2022/08/04 09:53:07;;;;;;;1.55;0.90;;;;;;;37.49;24.69;98908.91;6097757;23;20187;-90
2022/08/04 09:56:20;;;;;;;1.65;0.60;;;;;;;37.62;24.33;98919.41;6073076;23;20148;-92
2022/08/04 09:58:57;;;;;;;1.35;0.70;;;;;;;37.94;24.88;98906.59;5959160;24;20246;-90
2022/08/04 10:01:27;;;;;;;2.30;0.95;;;;;;;38.32;24.47;98908.22;5982897;24;20147;-91
2022/08/04 10:04:00;;;;;;;1.23;0.60;;;;;;;38.52;23.84;98907.50;6056637;23;20164;-91
2022/08/04 10:06:38;;;;;;;2.35;1.25;;;;;;;38.45;23.70;98906.91;6098750;23;20188;-89
2022/08/04 10:09:29;;;;;;;1.73;0.88;;;;;;;38.22;22.54;98913.59;6098555;23;20137;-92
2022/08/04 10:12:23;;;;;;;1.42;0.80;;;;;;;38.14;22.49;98912.19;6098453;23;20157;-90
2022/08/04 10:14:56;;;;;;;3.65;1.00;;;;;;;37.85;23.16;98907.28;6074272;23;20275;-91
2022/08/04 10:17:36;;;;;;;2.42;0.95;;;;;;;37.53;22.92;98905.38;6098248;23;20164;-90
2022/08/04 10:20:07;;;;;;;0.70;0.47;;;;;;;37.53;24.01;98893.59;6098340;23;20200;-89
2022/08/04 10:22:40;;;;;;;1.63;0.75;;;;;;;37.45;24.61;98894.09;6098652;23;20307;-90
2022/08/04 10:25:40;;;;;;;1.65;1.00;;;;;;;37.06;23.42;98889.84;6098271;23;20152;-89
2022/08/04 10:28:12;;;;;;;1.65;0.80;;;;;;;37.21;24.29;98879.09;6098653;23;20276;-90
2022/08/04 10:30:50;;;;;;;1.40;0.77;;;;;;;37.34;23.21;98889.59;6097925;23;20580;-91
2022/08/04 10:33:27;;;;;;;1.80;0.90;;;;;;;37.43;22.66;98893.53;6072714;23;20270;-90
2022/08/04 10:36:16;;;;;;;1.75;0.70;;;;;;;37.65;22.84;98886.06;6098451;23;20164;-90
2022/08/04 10:39:02;;;;;;;2.38;0.93;;;;;;;37.44;23.63;98878.78;6098214;23;20268;-91
2022/08/04 10:41:55;;;;;;;1.67;0.80;;;;;;;37.74;22.96;98879.00;6098635;23;20152;-91
2022/08/04 10:44:46;;;;;;;8.15;0.90;;;;;;;38.09;22.31;98868.34;6098683;23;20137;-90
2022/08/04 10:47:19;;;;;;;1.40;0.73;;;;;;;37.89;22.28;98870.97;6072823;23;20183;-91
2022/08/04 10:49:47;;;;;;;2.03;1.08;;;;;;;38.10;22.91;98861.78;6097895;23;20553;-91
2022/08/04 10:52:28;;;;;;;1.85;0.80;;;;;;;38.27;22.10;98866.25;6098083;23;20148;-89
2022/08/04 10:55:10;;;;;;;2.70;0.95;;;;;;;38.51;22.52;98856.53;6098429;23;20165;-90
2022/08/04 10:57:47;;;;;;;1.30;0.80;;;;;;;39.02;22.26;98847.38;6098487;23;20228;-90
2022/08/04 11:00:18;;;;;;;1.23;0.70;;;;;;;39.22;21.19;98852.13;6098680;23;20140;-92
2022/08/04 11:03:21;;;;;;;1.17;0.70;;;;;;;39.00;20.91;98852.31;6096603;23;20173;-91
2022/08/04 11:06:10;;;;;;;1.05;0.60;;;;;;;38.76;21.35;98853.91;6098118;23;20549;-91
2022/08/04 11:08:50;;;;;;;2.22;1.08;;;;;;;38.18;20.93;98854.16;6098406;23;20133;-91
2022/08/04 11:11:26;;;;;;;1.10;0.70;;;;;;;38.64;20.40;98840.44;6072684;23;20149;-92
2022/08/04 11:14:05;;;;;;;2.17;0.90;;;;;;;38.67;20.47;98855.50;6098375;23;20189;-93
2022/08/04 11:17:08;;;;;;;1.20;0.45;;;;;;;38.43;20.90;98835.97;6097744;23;20152;-92
2022/08/04 11:19:55;;;;;;;1.23;0.50;;;;;;;38.08;21.58;98833.00;6097476;23;20152;-91
2022/08/04 11:22:21;;;;;;;2.20;0.88;;;;;;;38.16;20.93;98832.50;6097952;23;20545;-90
2022/08/04 11:25:06;;;;;;;1.48;0.73;;;;;;;38.34;21.08;98823.06;6072396;23;20159;-92
2022/08/04 11:28:03;;;;;;;1.27;0.75;;;;;;;38.79;20.88;98825.97;6072717;23;20561;-91
2022/08/04 11:31:01;;;;;;;1.70;0.82;;;;;;;39.15;20.22;98813.16;6098161;23;20145;-93
2022/08/04 11:37:33;;;;;;;1.30;0.70;;;;;;;39.41;19.76;98811.25;5982749;24;20306;-93
2022/08/04 11:40:43;;;;;;;1.55;0.70;;;;;;;39.72;20.30;98818.41;6072666;23;20148;-90
2022/08/04 11:43:24;;;;;;;3.53;0.60;;;;;;;39.65;19.23;98813.19;6097739;23;20471;-92
2022/08/04 11:46:38;;;;;;;1.73;0.75;;;;;;;39.49;19.71;98816.19;6096865;23;20584;-92
2022/08/04 11:49:33;;;;;;;2.30;0.90;;;;;;;39.49;19.90;98813.47;6072513;23;20160;-91
2022/08/04 11:52:01;;;;;;;1.48;0.75;;;;;;;39.31;19.80;98803.84;6094245;23;20585;-91
2022/08/04 11:54:27;;;;;;;2.03;0.80;;;;;;;39.66;19.68;98801.13;6072286;23;20184;-91
2022/08/04 11:56:54;;;;;;;1.08;0.70;;;;;;;39.97;19.55;98799.13;6072967;23;20191;-92
2022/08/04 12:02:59;;;;;;;0.93;0.60;;;;;;;39.56;19.90;98800.28;6077753;23;20165;-92
2022/08/04 12:05:31;;;;;;;1.35;0.60;;;;;;;39.49;19.43;98794.25;6036357;23;20157;-92
2022/08/04 12:08:18;;;;;;;1.85;0.73;;;;;;;39.46;19.56;98787.41;6072934;23;20148;-92
2022/08/04 12:11:07;;;;;;;2.05;0.85;;;;;;;39.28;20.02;98790.69;6098365;23;20144;-91
2022/08/04 12:13:42;;;;;;;0.93;0.50;;;;;;;39.19;20.64;98786.84;6072115;23;20180;-91
2022/08/04 12:19:16;;;;;;;1.80;0.70;;;;;;;39.00;20.58;98789.28;6082671;23;20152;-91
2022/08/04 12:22:03;;;;;;;1.65;0.85;;;;;;;38.60;21.02;98789.19;6097416;23;20136;-92
2022/08/04 12:24:37;;;;;;;3.25;1.38;;;;;;;38.23;21.88;98796.69;6097224;23;20157;-92
2022/08/04 12:27:15;;;;;;;1.42;0.80;;;;;;;38.01;22.31;98785.91;6097535;23;20175;-92
2022/08/04 12:29:41;;;;;;;2.25;1.00;;;;;;;38.09;22.10;98791.69;6073219;23;20192;-92
2022/08/04 12:32:28;;;;;;;1.40;0.77;;;;;;;38.09;22.39;98791.69;6097506;23;20168;-92
2022/08/04 12:35:08;;;;;;;1.50;0.85;;;;;;;38.05;22.27;98785.09;6097497;23;20181;-92
2022/08/04 12:38:03;;;;;;;2.40;1.00;;;;;;;37.98;23.13;98789.16;6072559;23;20467;-91
2022/08/04 12:40:51;;;;;;;1.20;0.70;;;;;;;37.94;22.28;98791.63;6097585;23;20149;-92
2022/08/04 12:43:18;;;;;;;1.63;0.85;;;;;;;37.92;22.19;98777.34;6072180;23;20144;-91
2022/08/04 12:45:49;;;;;;;1.20;0.80;;;;;;;37.87;21.70;98780.06;6071972;23;20203;-90